sensor_id;sensor_type;location;lat;lon;timestamp;P1;durP1;ratioP1;P2;durP2;ratioP2
14975;SDS011;7584;60.468;25.126;2024-02-15T00:02:25;20.40;;;9.27;;
14975;SDS011;7584;60.468;25.126;2024-02-15T00:04:50;26.27;;;9.80;;
14975;SDS011;7584;60.468;25.126;2024-02-15T00:07:15;20.17;;;9.33;;
14975;SDS011;7584;60.468;25.126;2024-02-15T00:09:41;22.37;;;9.87;;
14975;SDS011;7584;60.468;25.126;2024-02-15T00:12:06;21.67;;;9.57;;
14975;SDS011;7584;60.468;25.126;2024-02-15T00:14:32;22.37;;;9.73;;
14975;SDS011;7584;60.468;25.126;2024-02-15T00:16:58;27.27;;;10.37;;
14975;SDS011;7584;60.468;25.126;2024-02-15T00:19:23;21.97;;;10.13;;
14975;SDS011;7584;60.468;25.126;2024-02-15T00:21:49;19.30;;;9.10;;
14975;SDS011;7584;60.468;25.126;2024-02-15T00:24:14;22.93;;;9.57;;
14975;SDS011;7584;60.468;25.126;2024-02-15T00:26:42;23.37;;;8.83;;
14975;SDS011;7584;60.468;25.126;2024-02-15T00:29:08;20.00;;;9.67;;
14975;SDS011;7584;60.468;25.126;2024-02-15T00:31:33;19.30;;;9.03;;
14975;SDS011;7584;60.468;25.126;2024-02-15T00:33:59;20.30;;;8.70;;
14975;SDS011;7584;60.468;25.126;2024-02-15T00:36:25;21.43;;;8.37;;
14975;SDS011;7584;60.468;25.126;2024-02-15T00:38:50;19.97;;;9.03;;
14975;SDS011;7584;60.468;25.126;2024-02-15T00:41:16;22.67;;;9.20;;
14975;SDS011;7584;60.468;25.126;2024-02-15T00:43:42;22.43;;;10.37;;
14975;SDS011;7584;60.468;25.126;2024-02-15T00:46:08;21.23;;;10.03;;
14975;SDS011;7584;60.468;25.126;2024-02-15T00:48:34;20.97;;;9.17;;
14975;SDS011;7584;60.468;25.126;2024-02-15T00:50:59;23.13;;;9.83;;
14975;SDS011;7584;60.468;25.126;2024-02-15T00:53:24;23.20;;;10.03;;
14975;SDS011;7584;60.468;25.126;2024-02-15T00:55:50;22.23;;;9.10;;
14975;SDS011;7584;60.468;25.126;2024-02-15T00:58:15;23.03;;;9.30;;
14975;SDS011;7584;60.468;25.126;2024-02-15T01:00:40;20.83;;;9.07;;
14975;SDS011;7584;60.468;25.126;2024-02-15T01:03:06;24.77;;;8.80;;
14975;SDS011;7584;60.468;25.126;2024-02-15T01:05:31;17.73;;;9.60;;
14975;SDS011;7584;60.468;25.126;2024-02-15T01:07:57;23.50;;;10.63;;
14975;SDS011;7584;60.468;25.126;2024-02-15T01:10:22;20.50;;;9.90;;
14975;SDS011;7584;60.468;25.126;2024-02-15T01:12:49;24.57;;;9.90;;
14975;SDS011;7584;60.468;25.126;2024-02-15T01:15:14;17.13;;;8.40;;
14975;SDS011;7584;60.468;25.126;2024-02-15T01:17:43;18.10;;;8.50;;
14975;SDS011;7584;60.468;25.126;2024-02-15T01:20:08;20.13;;;8.97;;
14975;SDS011;7584;60.468;25.126;2024-02-15T01:22:34;20.93;;;8.67;;
14975;SDS011;7584;60.468;25.126;2024-02-15T01:25:00;16.50;;;8.63;;
14975;SDS011;7584;60.468;25.126;2024-02-15T01:27:25;16.47;;;8.80;;
14975;SDS011;7584;60.468;25.126;2024-02-15T01:29:54;20.40;;;8.50;;
14975;SDS011;7584;60.468;25.126;2024-02-15T01:32:20;19.80;;;9.70;;
14975;SDS011;7584;60.468;25.126;2024-02-15T01:34:45;17.77;;;8.67;;
14975;SDS011;7584;60.468;25.126;2024-02-15T01:37:11;22.47;;;9.60;;
14975;SDS011;7584;60.468;25.126;2024-02-15T01:39:36;18.97;;;9.27;;
14975;SDS011;7584;60.468;25.126;2024-02-15T01:42:01;20.13;;;8.47;;
14975;SDS011;7584;60.468;25.126;2024-02-15T01:44:28;21.07;;;10.17;;
14975;SDS011;7584;60.468;25.126;2024-02-15T01:46:53;17.77;;;8.23;;
14975;SDS011;7584;60.468;25.126;2024-02-15T01:49:20;16.67;;;9.30;;
14975;SDS011;7584;60.468;25.126;2024-02-15T01:51:47;20.13;;;9.30;;
14975;SDS011;7584;60.468;25.126;2024-02-15T01:54:13;20.47;;;9.30;;
14975;SDS011;7584;60.468;25.126;2024-02-15T01:56:42;20.13;;;8.83;;
14975;SDS011;7584;60.468;25.126;2024-02-15T01:59:08;21.30;;;9.37;;
14975;SDS011;7584;60.468;25.126;2024-02-15T02:01:33;19.67;;;9.00;;
14975;SDS011;7584;60.468;25.126;2024-02-15T02:03:59;22.13;;;9.33;;
14975;SDS011;7584;60.468;25.126;2024-02-15T02:06:25;23.27;;;9.10;;
14975;SDS011;7584;60.468;25.126;2024-02-15T02:08:50;22.70;;;10.00;;
14975;SDS011;7584;60.468;25.126;2024-02-15T02:11:15;19.57;;;9.73;;
14975;SDS011;7584;60.468;25.126;2024-02-15T02:13:41;23.00;;;9.17;;
14975;SDS011;7584;60.468;25.126;2024-02-15T02:16:23;20.07;;;9.07;;
14975;SDS011;7584;60.468;25.126;2024-02-15T02:18:49;18.43;;;8.57;;
14975;SDS011;7584;60.468;25.126;2024-02-15T02:21:15;21.37;;;9.57;;
14975;SDS011;7584;60.468;25.126;2024-02-15T02:23:41;20.17;;;9.30;;
14975;SDS011;7584;60.468;25.126;2024-02-15T02:26:07;21.03;;;9.40;;
14975;SDS011;7584;60.468;25.126;2024-02-15T02:28:35;22.77;;;9.80;;
14975;SDS011;7584;60.468;25.126;2024-02-15T02:31:01;19.67;;;9.57;;
14975;SDS011;7584;60.468;25.126;2024-02-15T02:33:26;20.20;;;9.20;;
14975;SDS011;7584;60.468;25.126;2024-02-15T02:35:53;22.20;;;9.43;;
14975;SDS011;7584;60.468;25.126;2024-02-15T02:38:19;23.43;;;9.33;;
14975;SDS011;7584;60.468;25.126;2024-02-15T02:40:45;18.40;;;9.37;;
14975;SDS011;7584;60.468;25.126;2024-02-15T02:43:10;21.67;;;9.30;;
14975;SDS011;7584;60.468;25.126;2024-02-15T02:45:35;22.27;;;9.97;;
14975;SDS011;7584;60.468;25.126;2024-02-15T02:48:01;21.17;;;9.80;;
14975;SDS011;7584;60.468;25.126;2024-02-15T02:50:26;23.67;;;9.87;;
14975;SDS011;7584;60.468;25.126;2024-02-15T02:52:51;21.03;;;9.07;;
14975;SDS011;7584;60.468;25.126;2024-02-15T02:55:17;26.87;;;9.57;;
14975;SDS011;7584;60.468;25.126;2024-02-15T02:57:42;19.07;;;9.23;;
14975;SDS011;7584;60.468;25.126;2024-02-15T03:00:09;21.03;;;9.40;;
14975;SDS011;7584;60.468;25.126;2024-02-15T03:02:41;22.47;;;9.47;;
14975;SDS011;7584;60.468;25.126;2024-02-15T03:05:06;23.40;;;9.60;;
14975;SDS011;7584;60.468;25.126;2024-02-15T03:07:33;22.07;;;9.57;;
14975;SDS011;7584;60.468;25.126;2024-02-15T03:09:59;25.60;;;10.30;;
14975;SDS011;7584;60.468;25.126;2024-02-15T03:12:25;22.90;;;9.07;;
14975;SDS011;7584;60.468;25.126;2024-02-15T03:14:51;25.33;;;10.03;;
14975;SDS011;7584;60.468;25.126;2024-02-15T03:17:17;22.53;;;10.37;;
14975;SDS011;7584;60.468;25.126;2024-02-15T03:19:42;25.67;;;11.27;;
14975;SDS011;7584;60.468;25.126;2024-02-15T03:22:07;26.03;;;10.20;;
14975;SDS011;7584;60.468;25.126;2024-02-15T03:24:32;26.13;;;10.43;;
14975;SDS011;7584;60.468;25.126;2024-02-15T03:26:58;27.90;;;10.63;;
14975;SDS011;7584;60.468;25.126;2024-02-15T03:29:23;24.30;;;10.20;;
14975;SDS011;7584;60.468;25.126;2024-02-15T03:31:50;27.47;;;10.50;;
14975;SDS011;7584;60.468;25.126;2024-02-15T03:34:18;23.33;;;9.77;;
14975;SDS011;7584;60.468;25.126;2024-02-15T03:36:46;25.17;;;10.23;;
14975;SDS011;7584;60.468;25.126;2024-02-15T03:39:12;26.00;;;9.67;;
14975;SDS011;7584;60.468;25.126;2024-02-15T03:41:37;24.47;;;9.97;;
14975;SDS011;7584;60.468;25.126;2024-02-15T03:44:02;27.93;;;10.33;;
14975;SDS011;7584;60.468;25.126;2024-02-15T03:46:28;27.97;;;10.60;;
14975;SDS011;7584;60.468;25.126;2024-02-15T03:48:54;25.43;;;9.70;;
14975;SDS011;7584;60.468;25.126;2024-02-15T03:51:22;27.80;;;11.20;;
14975;SDS011;7584;60.468;25.126;2024-02-15T03:53:49;30.10;;;10.37;;
14975;SDS011;7584;60.468;25.126;2024-02-15T03:56:17;30.87;;;10.57;;
14975;SDS011;7584;60.468;25.126;2024-02-15T03:58:42;26.50;;;10.87;;
14975;SDS011;7584;60.468;25.126;2024-02-15T04:01:07;26.37;;;10.77;;
14975;SDS011;7584;60.468;25.126;2024-02-15T04:03:34;29.10;;;11.50;;
14975;SDS011;7584;60.468;25.126;2024-02-15T04:06:00;30.73;;;11.73;;
14975;SDS011;7584;60.468;25.126;2024-02-15T04:08:25;26.77;;;10.67;;
14975;SDS011;7584;60.468;25.126;2024-02-15T04:10:51;26.07;;;10.47;;
14975;SDS011;7584;60.468;25.126;2024-02-15T04:13:16;30.13;;;10.57;;
14975;SDS011;7584;60.468;25.126;2024-02-15T04:15:41;27.53;;;10.93;;
14975;SDS011;7584;60.468;25.126;2024-02-15T04:18:08;29.23;;;11.33;;
14975;SDS011;7584;60.468;25.126;2024-02-15T04:20:37;29.83;;;11.27;;
14975;SDS011;7584;60.468;25.126;2024-02-15T04:23:02;32.80;;;10.77;;
14975;SDS011;7584;60.468;25.126;2024-02-15T04:25:29;27.00;;;10.77;;
14975;SDS011;7584;60.468;25.126;2024-02-15T04:27:56;29.47;;;12.87;;
14975;SDS011;7584;60.468;25.126;2024-02-15T04:30:22;33.80;;;12.27;;
14975;SDS011;7584;60.468;25.126;2024-02-15T04:32:49;29.10;;;12.07;;
14975;SDS011;7584;60.468;25.126;2024-02-15T04:35:14;34.60;;;11.80;;
14975;SDS011;7584;60.468;25.126;2024-02-15T04:37:39;32.07;;;12.47;;
14975;SDS011;7584;60.468;25.126;2024-02-15T04:40:05;29.00;;;9.90;;
14975;SDS011;7584;60.468;25.126;2024-02-15T04:42:35;30.43;;;11.63;;
14975;SDS011;7584;60.468;25.126;2024-02-15T04:45:04;33.20;;;11.77;;
14975;SDS011;7584;60.468;25.126;2024-02-15T04:47:34;32.27;;;11.23;;
14975;SDS011;7584;60.468;25.126;2024-02-15T04:49:59;30.27;;;12.27;;
14975;SDS011;7584;60.468;25.126;2024-02-15T04:52:25;33.87;;;13.03;;
14975;SDS011;7584;60.468;25.126;2024-02-15T04:54:50;29.63;;;11.87;;
14975;SDS011;7584;60.468;25.126;2024-02-15T04:57:16;30.63;;;11.80;;
14975;SDS011;7584;60.468;25.126;2024-02-15T04:59:42;34.93;;;12.20;;
14975;SDS011;7584;60.468;25.126;2024-02-15T05:02:12;30.33;;;11.37;;
14975;SDS011;7584;60.468;25.126;2024-02-15T05:04:37;32.30;;;12.23;;
14975;SDS011;7584;60.468;25.126;2024-02-15T05:07:02;25.87;;;11.50;;
14975;SDS011;7584;60.468;25.126;2024-02-15T05:09:29;27.20;;;11.40;;
14975;SDS011;7584;60.468;25.126;2024-02-15T05:11:56;30.57;;;12.70;;
14975;SDS011;7584;60.468;25.126;2024-02-15T05:14:22;27.27;;;12.43;;
14975;SDS011;7584;60.468;25.126;2024-02-15T05:16:48;24.07;;;10.93;;
14975;SDS011;7584;60.468;25.126;2024-02-15T05:19:17;25.50;;;11.13;;
14975;SDS011;7584;60.468;25.126;2024-02-15T05:21:45;24.63;;;10.33;;
14975;SDS011;7584;60.468;25.126;2024-02-15T05:24:14;27.60;;;12.47;;
14975;SDS011;7584;60.468;25.126;2024-02-15T05:26:45;27.37;;;11.70;;
14975;SDS011;7584;60.468;25.126;2024-02-15T05:29:15;26.67;;;11.50;;
14975;SDS011;7584;60.468;25.126;2024-02-15T05:31:41;27.57;;;11.23;;
14975;SDS011;7584;60.468;25.126;2024-02-15T05:34:07;22.70;;;11.37;;
14975;SDS011;7584;60.468;25.126;2024-02-15T05:36:33;27.50;;;12.10;;
14975;SDS011;7584;60.468;25.126;2024-02-15T05:38:59;23.13;;;11.57;;
14975;SDS011;7584;60.468;25.126;2024-02-15T05:41:25;30.70;;;12.37;;
14975;SDS011;7584;60.468;25.126;2024-02-15T05:43:50;25.77;;;12.07;;
14975;SDS011;7584;60.468;25.126;2024-02-15T05:46:18;27.83;;;12.37;;
14975;SDS011;7584;60.468;25.126;2024-02-15T05:48:43;27.83;;;13.07;;
14975;SDS011;7584;60.468;25.126;2024-02-15T05:51:09;30.97;;;13.63;;
14975;SDS011;7584;60.468;25.126;2024-02-15T05:53:35;24.47;;;12.70;;
14975;SDS011;7584;60.468;25.126;2024-02-15T05:56:04;25.23;;;12.80;;
14975;SDS011;7584;60.468;25.126;2024-02-15T05:58:33;32.33;;;12.87;;
14975;SDS011;7584;60.468;25.126;2024-02-15T06:00:58;27.73;;;13.00;;
14975;SDS011;7584;60.468;25.126;2024-02-15T06:03:30;30.10;;;13.57;;
14975;SDS011;7584;60.468;25.126;2024-02-15T06:05:58;30.27;;;13.47;;
14975;SDS011;7584;60.468;25.126;2024-02-15T06:08:25;29.33;;;13.67;;
14975;SDS011;7584;60.468;25.126;2024-02-15T06:10:50;27.90;;;13.10;;
14975;SDS011;7584;60.468;25.126;2024-02-15T06:13:16;26.57;;;12.57;;
14975;SDS011;7584;60.468;25.126;2024-02-15T06:15:41;30.93;;;13.63;;
14975;SDS011;7584;60.468;25.126;2024-02-15T06:18:06;28.43;;;12.70;;
14975;SDS011;7584;60.468;25.126;2024-02-15T06:20:35;30.20;;;13.37;;
14975;SDS011;7584;60.468;25.126;2024-02-15T06:23:00;29.23;;;14.80;;
14975;SDS011;7584;60.468;25.126;2024-02-15T06:25:27;28.83;;;13.70;;
14975;SDS011;7584;60.468;25.126;2024-02-15T06:27:52;27.70;;;12.87;;
14975;SDS011;7584;60.468;25.126;2024-02-15T06:30:23;31.57;;;13.03;;
14975;SDS011;7584;60.468;25.126;2024-02-15T06:33:07;31.77;;;13.43;;
14975;SDS011;7584;60.468;25.126;2024-02-15T06:36:05;28.57;;;12.30;;
14975;SDS011;7584;60.468;25.126;2024-02-15T06:38:49;35.10;;;15.03;;
14975;SDS011;7584;60.468;25.126;2024-02-15T06:41:33;42.87;;;14.50;;
14975;SDS011;7584;60.468;25.126;2024-02-15T06:43:59;31.20;;;13.33;;
14975;SDS011;7584;60.468;25.126;2024-02-15T06:46:24;32.03;;;14.27;;
14975;SDS011;7584;60.468;25.126;2024-02-15T06:48:50;38.17;;;14.40;;
14975;SDS011;7584;60.468;25.126;2024-02-15T06:51:15;30.57;;;13.53;;
14975;SDS011;7584;60.468;25.126;2024-02-15T06:53:40;36.43;;;14.97;;
14975;SDS011;7584;60.468;25.126;2024-02-15T06:56:08;43.23;;;15.00;;
14975;SDS011;7584;60.468;25.126;2024-02-15T06:58:33;37.50;;;14.77;;
14975;SDS011;7584;60.468;25.126;2024-02-15T07:00:59;38.17;;;15.53;;
14975;SDS011;7584;60.468;25.126;2024-02-15T07:03:24;38.47;;;14.77;;
14975;SDS011;7584;60.468;25.126;2024-02-15T07:05:50;37.50;;;15.60;;
14975;SDS011;7584;60.468;25.126;2024-02-15T07:08:15;37.03;;;16.07;;
14975;SDS011;7584;60.468;25.126;2024-02-15T07:10:41;34.27;;;15.37;;
14975;SDS011;7584;60.468;25.126;2024-02-15T07:13:06;43.50;;;17.73;;
14975;SDS011;7584;60.468;25.126;2024-02-15T07:15:32;41.83;;;16.50;;
14975;SDS011;7584;60.468;25.126;2024-02-15T07:18:02;40.30;;;17.03;;
14975;SDS011;7584;60.468;25.126;2024-02-15T07:20:28;41.90;;;15.73;;
14975;SDS011;7584;60.468;25.126;2024-02-15T07:22:53;38.90;;;16.67;;
14975;SDS011;7584;60.468;25.126;2024-02-15T07:25:18;36.70;;;15.93;;
14975;SDS011;7584;60.468;25.126;2024-02-15T07:27:43;47.37;;;16.27;;
14975;SDS011;7584;60.468;25.126;2024-02-15T07:30:09;44.17;;;15.80;;
14975;SDS011;7584;60.468;25.126;2024-02-15T07:32:34;45.17;;;17.10;;
14975;SDS011;7584;60.468;25.126;2024-02-15T07:35:00;42.77;;;16.17;;
14975;SDS011;7584;60.468;25.126;2024-02-15T07:37:25;47.37;;;17.13;;
14975;SDS011;7584;60.468;25.126;2024-02-15T07:39:51;46.80;;;16.03;;
14975;SDS011;7584;60.468;25.126;2024-02-15T07:42:16;48.40;;;15.97;;
14975;SDS011;7584;60.468;25.126;2024-02-15T07:44:42;43.50;;;15.63;;
14975;SDS011;7584;60.468;25.126;2024-02-15T07:47:07;45.93;;;15.73;;
14975;SDS011;7584;60.468;25.126;2024-02-15T07:49:35;43.00;;;17.20;;
14975;SDS011;7584;60.468;25.126;2024-02-15T07:52:01;40.17;;;15.97;;
14975;SDS011;7584;60.468;25.126;2024-02-15T07:54:26;44.57;;;16.17;;
14975;SDS011;7584;60.468;25.126;2024-02-15T07:56:53;47.90;;;16.57;;
14975;SDS011;7584;60.468;25.126;2024-02-15T07:59:18;49.07;;;15.93;;
14975;SDS011;7584;60.468;25.126;2024-02-15T08:01:44;47.27;;;16.77;;
14975;SDS011;7584;60.468;25.126;2024-02-15T08:04:15;55.83;;;15.87;;
14975;SDS011;7584;60.468;25.126;2024-02-15T08:06:40;45.43;;;14.90;;
14975;SDS011;7584;60.468;25.126;2024-02-15T08:09:07;51.83;;;16.77;;
14975;SDS011;7584;60.468;25.126;2024-02-15T08:11:32;41.97;;;14.37;;
14975;SDS011;7584;60.468;25.126;2024-02-15T08:13:57;47.40;;;15.80;;
14975;SDS011;7584;60.468;25.126;2024-02-15T08:16:24;52.10;;;16.27;;
14975;SDS011;7584;60.468;25.126;2024-02-15T08:18:52;42.40;;;14.07;;
14975;SDS011;7584;60.468;25.126;2024-02-15T08:21:24;44.13;;;16.07;;
14975;SDS011;7584;60.468;25.126;2024-02-15T08:23:50;42.03;;;14.70;;
14975;SDS011;7584;60.468;25.126;2024-02-15T08:26:15;45.10;;;15.97;;
14975;SDS011;7584;60.468;25.126;2024-02-15T08:28:42;38.30;;;15.43;;
14975;SDS011;7584;60.468;25.126;2024-02-15T08:31:07;43.40;;;15.80;;
14975;SDS011;7584;60.468;25.126;2024-02-15T08:33:34;55.90;;;16.50;;
14975;SDS011;7584;60.468;25.126;2024-02-15T08:36:01;45.07;;;15.17;;
14975;SDS011;7584;60.468;25.126;2024-02-15T08:38:27;48.00;;;15.10;;
14975;SDS011;7584;60.468;25.126;2024-02-15T08:40:52;52.73;;;15.57;;
14975;SDS011;7584;60.468;25.126;2024-02-15T08:43:18;47.53;;;14.77;;
14975;SDS011;7584;60.468;25.126;2024-02-15T08:45:43;49.70;;;16.97;;
14975;SDS011;7584;60.468;25.126;2024-02-15T08:48:09;44.70;;;14.33;;
14975;SDS011;7584;60.468;25.126;2024-02-15T08:50:34;46.83;;;16.80;;
14975;SDS011;7584;60.468;25.126;2024-02-15T08:53:01;50.67;;;15.60;;
14975;SDS011;7584;60.468;25.126;2024-02-15T08:55:31;48.70;;;15.70;;
14975;SDS011;7584;60.468;25.126;2024-02-15T08:57:56;43.13;;;14.20;;
14975;SDS011;7584;60.468;25.126;2024-02-15T09:00:22;53.30;;;17.43;;
14975;SDS011;7584;60.468;25.126;2024-02-15T09:02:47;44.33;;;15.70;;
14975;SDS011;7584;60.468;25.126;2024-02-15T09:05:13;43.00;;;15.17;;
14975;SDS011;7584;60.468;25.126;2024-02-15T09:07:42;42.77;;;14.63;;
14975;SDS011;7584;60.468;25.126;2024-02-15T09:10:11;45.30;;;14.87;;
14975;SDS011;7584;60.468;25.126;2024-02-15T09:12:37;43.73;;;13.90;;
14975;SDS011;7584;60.468;25.126;2024-02-15T09:15:05;38.57;;;13.80;;
14975;SDS011;7584;60.468;25.126;2024-02-15T09:17:30;39.93;;;13.90;;
14975;SDS011;7584;60.468;25.126;2024-02-15T09:19:57;41.10;;;13.97;;
14975;SDS011;7584;60.468;25.126;2024-02-15T09:22:22;41.47;;;13.57;;
14975;SDS011;7584;60.468;25.126;2024-02-15T09:24:48;39.13;;;12.60;;
14975;SDS011;7584;60.468;25.126;2024-02-15T09:27:13;34.93;;;13.83;;
14975;SDS011;7584;60.468;25.126;2024-02-15T09:29:38;33.30;;;12.93;;
14975;SDS011;7584;60.468;25.126;2024-02-15T09:32:05;32.13;;;13.57;;
14975;SDS011;7584;60.468;25.126;2024-02-15T09:34:30;33.13;;;12.13;;
14975;SDS011;7584;60.468;25.126;2024-02-15T09:36:58;33.07;;;13.70;;
14975;SDS011;7584;60.468;25.126;2024-02-15T09:39:23;29.80;;;13.00;;
14975;SDS011;7584;60.468;25.126;2024-02-15T09:41:48;30.53;;;12.73;;
14975;SDS011;7584;60.468;25.126;2024-02-15T09:44:20;20.37;;;10.37;;
14975;SDS011;7584;60.468;25.126;2024-02-15T09:46:46;29.87;;;12.20;;
14975;SDS011;7584;60.468;25.126;2024-02-15T09:49:17;25.93;;;11.13;;
14975;SDS011;7584;60.468;25.126;2024-02-15T09:51:42;23.33;;;10.43;;
14975;SDS011;7584;60.468;25.126;2024-02-15T09:54:08;24.73;;;11.53;;
14975;SDS011;7584;60.468;25.126;2024-02-15T09:56:35;19.57;;;10.13;;
14975;SDS011;7584;60.468;25.126;2024-02-15T09:59:00;23.20;;;11.13;;
14975;SDS011;7584;60.468;25.126;2024-02-15T10:01:27;19.53;;;9.70;;
14975;SDS011;7584;60.468;25.126;2024-02-15T10:03:52;21.10;;;10.60;;
14975;SDS011;7584;60.468;25.126;2024-02-15T10:06:18;18.77;;;9.73;;
14975;SDS011;7584;60.468;25.126;2024-02-15T10:08:44;18.77;;;9.33;;
14975;SDS011;7584;60.468;25.126;2024-02-15T10:11:09;19.90;;;9.90;;
14975;SDS011;7584;60.468;25.126;2024-02-15T10:13:35;22.20;;;10.23;;
14975;SDS011;7584;60.468;25.126;2024-02-15T10:18:38;24.90;;;9.87;;
14975;SDS011;7584;60.468;25.126;2024-02-15T10:21:04;27.20;;;11.47;;
14975;SDS011;7584;60.468;25.126;2024-02-15T10:23:29;22.63;;;10.33;;
14975;SDS011;7584;60.468;25.126;2024-02-15T10:25:54;27.00;;;11.97;;
14975;SDS011;7584;60.468;25.126;2024-02-15T10:28:21;26.80;;;12.43;;
14975;SDS011;7584;60.468;25.126;2024-02-15T10:30:50;27.17;;;11.57;;
14975;SDS011;7584;60.468;25.126;2024-02-15T10:33:28;29.73;;;11.30;;
14975;SDS011;7584;60.468;25.126;2024-02-15T10:36:09;27.53;;;11.37;;
14975;SDS011;7584;60.468;25.126;2024-02-15T10:38:34;25.07;;;11.23;;
14975;SDS011;7584;60.468;25.126;2024-02-15T10:41:04;30.53;;;11.53;;
14975;SDS011;7584;60.468;25.126;2024-02-15T10:43:33;24.70;;;10.93;;
14975;SDS011;7584;60.468;25.126;2024-02-15T10:45:59;26.77;;;11.40;;
14975;SDS011;7584;60.468;25.126;2024-02-15T10:48:25;26.87;;;11.40;;
14975;SDS011;7584;60.468;25.126;2024-02-15T10:50:53;25.63;;;11.47;;
14975;SDS011;7584;60.468;25.126;2024-02-15T10:55:48;28.73;;;13.93;;
14975;SDS011;7584;60.468;25.126;2024-02-15T10:58:17;24.33;;;11.63;;
14975;SDS011;7584;60.468;25.126;2024-02-15T11:00:44;25.20;;;11.17;;
14975;SDS011;7584;60.468;25.126;2024-02-15T11:03:11;26.10;;;10.63;;
14975;SDS011;7584;60.468;25.126;2024-02-15T11:05:40;26.43;;;11.37;;
14975;SDS011;7584;60.468;25.126;2024-02-15T11:08:08;26.77;;;12.13;;
14975;SDS011;7584;60.468;25.126;2024-02-15T11:10:37;27.83;;;10.63;;
14975;SDS011;7584;60.468;25.126;2024-02-15T11:13:03;22.30;;;11.40;;
14975;SDS011;7584;60.468;25.126;2024-02-15T11:15:41;30.20;;;12.67;;
14975;SDS011;7584;60.468;25.126;2024-02-15T11:18:07;26.53;;;11.37;;
14975;SDS011;7584;60.468;25.126;2024-02-15T11:22:57;32.63;;;11.70;;
14975;SDS011;7584;60.468;25.126;2024-02-15T11:25:57;38.07;;;13.17;;
14975;SDS011;7584;60.468;25.126;2024-02-15T11:30:48;35.90;;;14.17;;
14975;SDS011;7584;60.468;25.126;2024-02-15T11:36:13;35.93;;;13.10;;
14975;SDS011;7584;60.468;25.126;2024-02-15T11:38:39;34.43;;;13.30;;
14975;SDS011;7584;60.468;25.126;2024-02-15T11:41:11;37.43;;;13.97;;
14975;SDS011;7584;60.468;25.126;2024-02-15T11:46:08;37.83;;;13.30;;
14975;SDS011;7584;60.468;25.126;2024-02-15T11:48:35;33.33;;;13.57;;
14975;SDS011;7584;60.468;25.126;2024-02-15T11:51:04;41.03;;;14.07;;
14975;SDS011;7584;60.468;25.126;2024-02-15T11:53:31;39.20;;;15.40;;
14975;SDS011;7584;60.468;25.126;2024-02-15T11:56:00;50.70;;;16.60;;
14975;SDS011;7584;60.468;25.126;2024-02-15T11:58:27;42.20;;;15.63;;
14975;SDS011;7584;60.468;25.126;2024-02-15T12:01:07;30.83;;;14.53;;
14975;SDS011;7584;60.468;25.126;2024-02-15T12:03:54;38.73;;;14.57;;
14975;SDS011;7584;60.468;25.126;2024-02-15T12:06:38;37.73;;;13.53;;
14975;SDS011;7584;60.468;25.126;2024-02-15T12:09:22;37.33;;;14.53;;
14975;SDS011;7584;60.468;25.126;2024-02-15T12:12:06;34.00;;;13.40;;
14975;SDS011;7584;60.468;25.126;2024-02-15T12:14:57;32.90;;;13.70;;
14975;SDS011;7584;60.468;25.126;2024-02-15T12:17:41;33.20;;;12.87;;
14975;SDS011;7584;60.468;25.126;2024-02-15T12:20:25;29.70;;;11.93;;
14975;SDS011;7584;60.468;25.126;2024-02-15T12:22:51;30.67;;;12.77;;
14975;SDS011;7584;60.468;25.126;2024-02-15T12:25:17;36.80;;;13.33;;
14975;SDS011;7584;60.468;25.126;2024-02-15T12:27:46;33.20;;;12.57;;
14975;SDS011;7584;60.468;25.126;2024-02-15T12:30:18;33.33;;;13.23;;
14975;SDS011;7584;60.468;25.126;2024-02-15T12:32:50;30.53;;;13.80;;
14975;SDS011;7584;60.468;25.126;2024-02-15T12:35:17;32.13;;;12.90;;
14975;SDS011;7584;60.468;25.126;2024-02-15T12:38:01;30.37;;;13.83;;
14975;SDS011;7584;60.468;25.126;2024-02-15T12:40:31;28.10;;;13.23;;
14975;SDS011;7584;60.468;25.126;2024-02-15T12:42:56;28.80;;;13.13;;
14975;SDS011;7584;60.468;25.126;2024-02-15T12:45:24;28.57;;;12.23;;
14975;SDS011;7584;60.468;25.126;2024-02-15T12:47:50;29.07;;;12.03;;
14975;SDS011;7584;60.468;25.126;2024-02-15T12:50:16;30.00;;;12.30;;
14975;SDS011;7584;60.468;25.126;2024-02-15T12:52:45;31.63;;;11.87;;
14975;SDS011;7584;60.468;25.126;2024-02-15T12:55:13;26.73;;;11.93;;
14975;SDS011;7584;60.468;25.126;2024-02-15T12:57:39;25.60;;;11.60;;
14975;SDS011;7584;60.468;25.126;2024-02-15T13:00:06;23.80;;;11.10;;
14975;SDS011;7584;60.468;25.126;2024-02-15T13:02:36;24.23;;;10.73;;
14975;SDS011;7584;60.468;25.126;2024-02-15T13:05:03;24.67;;;11.30;;
14975;SDS011;7584;60.468;25.126;2024-02-15T13:07:28;24.50;;;11.10;;
14975;SDS011;7584;60.468;25.126;2024-02-15T13:09:53;21.87;;;10.87;;
14975;SDS011;7584;60.468;25.126;2024-02-15T13:12:20;29.40;;;11.27;;
14975;SDS011;7584;60.468;25.126;2024-02-15T13:14:45;23.43;;;11.17;;
14975;SDS011;7584;60.468;25.126;2024-02-15T13:17:10;27.60;;;10.00;;
14975;SDS011;7584;60.468;25.126;2024-02-15T13:19:36;24.63;;;9.93;;
14975;SDS011;7584;60.468;25.126;2024-02-15T13:22:01;26.67;;;10.00;;
14975;SDS011;7584;60.468;25.126;2024-02-15T13:24:26;27.23;;;11.23;;
14975;SDS011;7584;60.468;25.126;2024-02-15T13:26:52;28.23;;;10.63;;
14975;SDS011;7584;60.468;25.126;2024-02-15T13:29:17;34.13;;;10.93;;
14975;SDS011;7584;60.468;25.126;2024-02-15T13:31:42;28.97;;;12.40;;
14975;SDS011;7584;60.468;25.126;2024-02-15T13:34:08;27.30;;;11.07;;
14975;SDS011;7584;60.468;25.126;2024-02-15T13:36:34;32.20;;;12.27;;
14975;SDS011;7584;60.468;25.126;2024-02-15T13:39:01;30.23;;;10.97;;
14975;SDS011;7584;60.468;25.126;2024-02-15T13:41:29;26.93;;;12.23;;
14975;SDS011;7584;60.468;25.126;2024-02-15T13:43:55;26.67;;;11.47;;
14975;SDS011;7584;60.468;25.126;2024-02-15T13:46:20;28.37;;;11.50;;
14975;SDS011;7584;60.468;25.126;2024-02-15T13:48:45;25.13;;;11.40;;
14975;SDS011;7584;60.468;25.126;2024-02-15T13:51:10;31.23;;;11.57;;
14975;SDS011;7584;60.468;25.126;2024-02-15T13:53:36;25.63;;;10.83;;
14975;SDS011;7584;60.468;25.126;2024-02-15T13:56:01;24.73;;;11.47;;
14975;SDS011;7584;60.468;25.126;2024-02-15T13:58:26;25.20;;;11.37;;
14975;SDS011;7584;60.468;25.126;2024-02-15T14:00:53;25.23;;;11.20;;
14975;SDS011;7584;60.468;25.126;2024-02-15T14:03:18;28.87;;;11.50;;
14975;SDS011;7584;60.468;25.126;2024-02-15T14:05:47;24.57;;;11.70;;
14975;SDS011;7584;60.468;25.126;2024-02-15T14:08:14;30.37;;;12.37;;
14975;SDS011;7584;60.468;25.126;2024-02-15T14:10:40;30.20;;;12.33;;
14975;SDS011;7584;60.468;25.126;2024-02-15T14:13:05;30.20;;;11.87;;
14975;SDS011;7584;60.468;25.126;2024-02-15T14:15:33;23.87;;;10.07;;
14975;SDS011;7584;60.468;25.126;2024-02-15T14:18:09;29.53;;;11.43;;
14975;SDS011;7584;60.468;25.126;2024-02-15T14:20:36;24.60;;;11.07;;
14975;SDS011;7584;60.468;25.126;2024-02-15T14:23:01;34.17;;;12.00;;
14975;SDS011;7584;60.468;25.126;2024-02-15T14:25:31;33.83;;;11.80;;
14975;SDS011;7584;60.468;25.126;2024-02-15T14:27:56;32.90;;;12.47;;
14975;SDS011;7584;60.468;25.126;2024-02-15T14:30:22;29.87;;;10.53;;
14975;SDS011;7584;60.468;25.126;2024-02-15T14:33:06;32.57;;;11.97;;
14975;SDS011;7584;60.468;25.126;2024-02-15T14:35:37;29.47;;;11.07;;
14975;SDS011;7584;60.468;25.126;2024-02-15T14:38:07;28.13;;;11.77;;
14975;SDS011;7584;60.468;25.126;2024-02-15T14:40:37;31.20;;;12.53;;